Terminal Aerodrome Forecast
Issued by NWS

Home | Current Version | Previous Version | Text Only | Print | Product List | Glossary On
Versions: 1 2 3 4 5 6 7 8 9 10 11 12 13 14
000
FTUS46 KPDT 012300
TAFALW
TAF
KALW 012340Z 0200/0224 27007KT P6SM FEW150 SCT200 BKN250
     FM020200 27008KT P6SM -TSRAGS SCT130CB BKN150 BKN200
      TEMPO 0202/0204 VRB20G25KT
     FM020400 31007KT P6SM SCT150 BKN250
     FM020600 14007KT P6SM BKN250=

USA.gov is the U.S. government's official web portal to all federal, state and local government web resources and services.